Terminal Aerodrome Forecast
Issued by NWS

Home | Current Version | Previous Version | Text Only | Print | Product List | Glossary On
Versions: 1 2 3 4 5 6 7 8 9 10 11 12 13 14 15 16 17 18 19 20 21 22 23 24
000
FTUS43 KAPX 291120
TAFMBL
TAF
KMBL 291120Z 2912/3012 19007KT P6SM SCT040 BKN200
     FM291600 21012G17KT P6SM BKN040
     FM292300 24009KT P6SM BKN040
     FM300300 26006KT P6SM BKN050
      AMD LTD TO CLD VIS AND WIND=

USA.gov is the U.S. government's official web portal to all federal, state and local government web resources and services.